Terminal Aerodrome Forecast
Issued by NWS Cleveland, OH

Home | Current Version | Previous Version | Text Only | Print | Product List | Glossary On
Versions: 1 2 3 4 5 6 7 8 9 10 11 12 13 14 15 16 17 18 19 20 21
458
FTUS41 KCLE 232339
TAFTOL
TAF
KTOL 232339Z 2400/2424 04006KT 5SM -RA BR OVC006
      TEMPO 2400/2404 2SM -RA BR OVC004
     FM240600 34003KT 1SM -DZ BR OVC003
     FM241400 30003KT 2SM BR OVC006
     FM241800 29006KT 5SM BR OVC010=

USA.gov is the U.S. government's official web portal to all federal, state and local government web resources and services.